HOURLY OBSERVATIONS


Time
(EST)
Temperature
°F
Dew Point
°F
Humidity
%
Wind
mph
Pressure
mb
Precip.
Hour
in
Precip.
Day
in
6 Hr
Max Temp
°F
6 Hr
Min Temp
°F
20 10:00 32 30 91 NW 2 G 7 1019.3 0.00
20 09:00 32 30 91 W 3 G 6 1018.8 0.00
20 08:00 32 29 91 W 1 G 5 1018.0 0.00
20 07:00 33 30 91 WNW 2 G 6 1017.8 0.00 34 33
20 06:00 33 31 91 W 1 G 4 1017.2 0.00
20 05:00 33 31 90 WSW 2 G 4 1016.8 0.00
20 04:00 34 31 90 W 0 G 3 1016.7 0.00
20 03:00 34 31 91 WNW 0 G 4 1016.7 0.00
20 02:00 34 31 90 WSW 0 G 3 1016.4 0.00
20 01:00 34 32 91 W 1 G 4 1016.3 0.00 37 34
20 00:00 35 33 93 W 3 G 6 1016.5 0.12
19 23:00 36 35 93 WNW 1 G 4 1016.2 0.12
19 22:00 37 35 94 W 0 G 4 1016.2 0.12
19 21:00 36 35 93 Calm 1016.3 0.12
19 20:00 36 34 93 Calm 1016.4 0.12
19 19:00 36 34 93 Calm 1016.2 0.12 36 36
19 18:00 36 34 93 Calm 1016.0 0.12
19 17:00 36 34 93 Calm 1016.1 0.12
19 16:00 36 34 93 Calm 1015.8 0.12
19 15:00 36 34 93 ESE 1 G 4 1016.3 0.01 0.12
19 14:00 36 34 94 E 3 G 5 1016.6 0.11
19 13:00 36 34 93 E 1 G 5 1017.5 0.11 36 35
19 12:00 36 34 94 ESE 0 G 2 1018.4 0.02 0.11
19 11:00 35 34 94 E 1 G 4 1019.3 0.02 0.09
19 10:00 35 33 94 E 0 G 4 1020.0 0.03 0.07
19 09:00 35 34 94 E 4 G 6 1020.2 0.04 0.04
19 08:00 35 34 94 Calm 1020.6 0.00
19 07:00 35 34 94 Calm 1021.0 0.00 36 35
19 06:00 35 34 94 Calm 1021.3 0.00
19 05:00 35 34 94 Calm 1021.0 0.00
19 04:00 35 34 94 Calm 1021.5 0.00
19 03:00 36 34 94 Calm 1022.0 0.00
19 02:00 36 34 94 Calm 1021.8 0.00
19 01:00 36 34 94 Calm 1022.0 0.00 36 34
19 00:00 35 33 93 Calm 1022.1 0.06
18 23:00 35 33 93 Calm 1022.2 0.06
18 22:00 34 33 93 Calm 1022.2 0.06
18 21:00 34 32 93 Calm 1022.0 0.01 0.06
18 20:00 34 32 92 N 0 G 2 1022.3 0.05
18 19:00 35 33 92 NNW 0 G 4 1022.1 0.05 38 35
18 18:00 35 33 92 Calm 1021.9 0.02 0.05
18 17:00 36 33 91 Calm 1021.9 0.02 0.03
18 16:00 36 34 91 NNE 1 G 3 1022.0 0.01
18 15:00 37 35 90 N 0 G 3 1021.7 0.01
18 14:00 38 35 89 NE 0 G 3 1022.4 0.01
18 13:00 38 35 89 NNE 0 G 3 1023.2 0.01 38 34
18 12:00 37 34 89 Calm 1023.8 0.01
18 11:00 37 35 90 E 0 G 1 1024.8 0.01
18 10:00 36 34 92 SSE 0 G 5 1024.7 0.01
18 09:00 35 33 92 Calm 1025.3 0.01
18 08:00 34 32 92 E 1 G 4 1025.2 0.01
18 07:00 34 32 92 E 0 G 4 1025.7 0.01 35 34
18 06:00 34 32 92 E 2 G 4 1026.0 0.01
18 05:00 34 32 92 ESE 2 G 5 1025.6 0.01
18 04:00 34 32 92 E 2 G 6 1026.0 0.01
18 03:00 34 32 92 E 1 G 5 1026.3 0.01
18 02:00 34 32 92 E 0 G 4 1026.3 0.01 0.01
18 01:00 35 32 92 E 0 G 6 1026.8 0.00 36 35
18 00:00 35 33 92 NE 0 G 5 1026.7 0.02
17 23:00 35 32 91 Calm 1027.0 0.12
17 22:00 35 33 91 Calm 1027.3 0.01 0.12
17 21:00 35 32 90 Calm 1027.4 0.01 0.11
17 20:00 35 32 89 Calm 1027.5 0.10
17 19:00 36 32 87 NNE 3 G 6 1027.3 0.10 39 36
17 18:00 37 32 84 N 2 G 6 1026.9 0.10
17 17:00 38 33 82 NE 2 G 7 1026.5 0.10
17 16:00 39 33 81 Calm 1026.0 0.10
17 15:00 39 34 82 NNW 0 G 4 1025.9 0.10
17 14:00 39 33 81 WSW 2 G 4 1025.6 0.10
17 13:00 39 33 81 W 3 G 7 1025.5 0.10 39 35
17 12:00 39 33 82 SW 3 G 5 1025.5 0.10
17 11:00 38 33 85 W 2 G 5 1026.1 0.08